createdAt,value
2018-07-08T00:00:35.293Z,58.46
2018-07-08T00:03:04.368Z,59.34
2018-07-08T00:05:33.472Z,58.98
2018-07-08T00:08:02.584Z,58.91
2018-07-08T00:10:31.704Z,58.93
2018-07-08T00:13:00.775Z,58.73
2018-07-08T00:15:29.860Z,58.24
2018-07-08T00:17:58.936Z,59.00
2018-07-08T00:20:28.036Z,58.83
2018-07-08T00:22:57.128Z,58.89
2018-07-08T00:25:26.288Z,59.29
2018-07-08T00:27:55.384Z,58.88
2018-07-08T00:30:24.472Z,58.41
2018-07-08T00:32:53.560Z,58.97
2018-07-08T00:35:22.660Z,58.85
2018-07-08T00:37:51.828Z,58.82
2018-07-08T00:40:20.922Z,58.96
2018-07-08T00:42:49.976Z,58.69
2018-07-08T00:45:19.064Z,58.98
2018-07-08T00:47:48.136Z,60.08
2018-07-08T00:50:17.236Z,60.07
2018-07-08T00:52:46.631Z,59.90
2018-07-08T00:55:15.724Z,60.19
2018-07-08T00:57:44.801Z,59.76
2018-07-08T01:00:25.149Z,60.27
2018-07-08T01:02:54.232Z,60.83
2018-07-08T01:05:23.335Z,60.21
2018-07-08T01:07:52.407Z,60.37
2018-07-08T01:10:21.776Z,60.43
2018-07-08T01:12:50.848Z,60.24
2018-07-08T01:15:20.024Z,61.21
2018-07-08T01:17:49.093Z,60.69
2018-07-08T01:20:18.172Z,60.97
2018-07-08T01:22:47.287Z,61.12
2018-07-08T01:25:17.336Z,61.30
2018-07-08T01:27:46.428Z,61.22
2018-07-08T01:30:15.508Z,61.33
2018-07-08T01:32:44.612Z,61.12
2018-07-08T01:35:13.688Z,61.39
2018-07-08T01:37:42.785Z,61.33
2018-07-08T01:40:11.871Z,61.58
2018-07-08T01:42:40.952Z,61.80
2018-07-08T01:45:10.024Z,61.02
2018-07-08T01:47:39.120Z,60.81
2018-07-08T01:50:08.190Z,60.99
2018-07-08T01:52:37.299Z,61.56
2018-07-08T01:55:06.386Z,62.04
2018-07-08T01:57:35.488Z,62.15
2018-07-08T02:00:05.209Z,62.51
2018-07-08T02:02:34.308Z,62.18
2018-07-08T02:05:03.396Z,62.16
2018-07-08T02:07:32.492Z,62.58
2018-07-08T02:10:01.561Z,62.20
2018-07-08T02:12:30.652Z,62.33
2018-07-08T02:14:59.716Z,62.91
2018-07-08T02:17:28.800Z,62.36
2018-07-08T02:19:57.893Z,62.34
2018-07-08T02:22:26.984Z,63.05
2018-07-08T02:24:56.661Z,62.40
2018-07-08T02:27:25.760Z,62.25
2018-07-08T02:29:54.840Z,62.45
2018-07-08T02:32:23.980Z,63.48
2018-07-08T02:34:53.057Z,63.02
2018-07-08T02:37:22.172Z,63.22
2018-07-08T02:39:51.316Z,63.50
2018-07-08T02:42:20.384Z,63.71
2018-07-08T02:44:49.452Z,63.34
2018-07-08T02:47:18.564Z,63.79
2018-07-08T02:49:47.900Z,65.08
2018-07-08T02:52:17.819Z,65.61
2018-07-08T02:54:46.909Z,65.55
2018-07-08T02:57:16.320Z,65.59
2018-07-08T02:59:45.687Z,66.17
2018-07-08T03:02:14.772Z,65.47
2018-07-08T03:04:43.884Z,65.29
2018-07-08T03:07:12.953Z,65.08
2018-07-08T03:09:42.048Z,65.42
2018-07-08T03:12:11.128Z,65.30
2018-07-08T03:14:40.231Z,65.22
2018-07-08T03:17:09.313Z,64.98
2018-07-08T03:19:38.421Z,65.70
2018-07-08T03:22:07.493Z,66.15
2018-07-08T03:24:36.584Z,66.11
2018-07-08T03:27:05.668Z,65.89
2018-07-08T03:29:34.766Z,66.53
2018-07-08T03:32:03.853Z,66.39
2018-07-08T03:34:32.964Z,66.56
2018-07-08T03:37:02.049Z,66.69
2018-07-08T03:39:31.157Z,66.73
2018-07-08T03:42:00.239Z,66.73
2018-07-08T03:44:29.335Z,66.16
2018-07-08T03:46:58.411Z,66.42
2018-07-08T03:49:27.516Z,66.40
2018-07-08T03:51:56.625Z,66.73
2018-07-08T03:54:32.984Z,66.50
2018-07-08T03:57:02.056Z,66.36
2018-07-08T03:59:31.155Z,66.34
2018-07-08T04:02:00.228Z,66.76
2018-07-08T04:04:29.323Z,66.71
2018-07-08T04:06:58.403Z,66.79
2018-07-08T04:09:27.500Z,66.70
2018-07-08T04:11:56.582Z,66.41
2018-07-08T04:14:25.684Z,66.29
2018-07-08T04:16:54.748Z,66.40
2018-07-08T04:19:23.848Z,66.51
2018-07-08T04:21:52.932Z,66.36
2018-07-08T04:24:22.036Z,67.88
2018-07-08T04:26:51.193Z,67.60
2018-07-08T04:29:20.263Z,67.40
2018-07-08T04:31:49.360Z,67.55
2018-07-08T04:34:18.432Z,68.05
2018-07-08T04:36:47.523Z,67.77
2018-07-08T04:39:16.659Z,67.89
2018-07-08T04:41:46.116Z,67.86
2018-07-08T04:44:15.208Z,67.77
2018-07-08T04:46:44.308Z,68.35
2018-07-08T04:49:13.423Z,68.31
2018-07-08T04:51:42.472Z,67.85
2018-07-08T04:54:11.579Z,67.25
2018-07-08T04:56:40.673Z,67.51
2018-07-08T04:59:09.750Z,67.62
2018-07-08T05:01:38.864Z,67.48
2018-07-08T05:04:07.940Z,67.84
2018-07-08T05:06:37.062Z,67.94
2018-07-08T05:09:06.227Z,67.89
2018-07-08T05:11:35.340Z,68.54
2018-07-08T05:14:04.419Z,67.68
2018-07-08T05:16:33.524Z,67.47
2018-07-08T05:19:02.601Z,67.64
2018-07-08T05:21:31.728Z,68.41
2018-07-08T05:24:00.812Z,68.12
2018-07-08T05:26:29.912Z,68.17
2018-07-08T05:28:59.285Z,68.18
2018-07-08T05:31:28.401Z,67.81
2018-07-08T05:33:57.480Z,67.81
2018-07-08T05:36:26.573Z,68.14
2018-07-08T05:38:55.652Z,67.92
2018-07-08T05:41:24.749Z,68.01
2018-07-08T05:43:53.915Z,67.68
2018-07-08T05:46:23.024Z,67.34
2018-07-08T05:48:52.092Z,67.13
2018-07-08T05:51:21.195Z,67.59
2018-07-08T05:53:50.295Z,67.17
2018-07-08T05:56:19.400Z,67.19
2018-07-08T05:58:48.484Z,67.62
2018-07-08T06:01:17.600Z,67.12
2018-07-08T06:03:46.672Z,67.22
2018-07-08T06:06:15.784Z,66.87
2018-07-08T06:08:44.860Z,66.37
2018-07-08T06:11:13.979Z,67.00
2018-07-08T06:13:43.061Z,66.40
2018-07-08T06:16:12.141Z,65.75
2018-07-08T06:18:41.387Z,65.24
2018-07-08T06:21:10.448Z,64.93
2018-07-08T06:23:39.551Z,64.73
2018-07-08T06:26:08.636Z,63.89
2018-07-08T06:28:37.740Z,64.33
2018-07-08T06:31:06.818Z,63.41
2018-07-08T06:33:35.923Z,63.26
2018-07-08T06:36:05.086Z,63.01
2018-07-08T06:38:34.200Z,61.79
2018-07-08T06:41:03.272Z,61.51
2018-07-08T06:43:32.376Z,61.73
2018-07-08T06:46:01.452Z,61.85
2018-07-08T06:48:30.552Z,62.01
2018-07-08T06:50:59.624Z,61.24
2018-07-08T06:53:28.832Z,61.17
2018-07-08T06:55:57.999Z,61.20
2018-07-08T06:58:27.096Z,61.36
2018-07-08T07:00:56.183Z,60.28
2018-07-08T07:03:25.276Z,60.73
2018-07-08T07:05:54.975Z,60.60
2018-07-08T07:08:24.080Z,59.71
2018-07-08T07:10:53.168Z,59.62
2018-07-08T07:13:22.269Z,59.46
2018-07-08T07:15:51.340Z,60.19
2018-07-08T07:18:20.439Z,59.15
2018-07-08T07:20:49.528Z,59.55
2018-07-08T07:23:18.636Z,59.38
2018-07-08T07:25:47.716Z,58.47
2018-07-08T07:28:16.801Z,58.12
2018-07-08T07:30:45.909Z,58.84
2018-07-08T07:33:14.977Z,59.64
2018-07-08T07:35:44.081Z,58.70
2018-07-08T07:38:13.189Z,57.83
2018-07-08T07:40:42.317Z,56.67
2018-07-08T07:43:11.440Z,57.55
2018-07-08T07:45:40.564Z,56.80
2018-07-08T07:48:09.648Z,56.95
2018-07-08T07:50:38.772Z,56.60
2018-07-08T07:53:07.876Z,56.26
2018-07-08T07:55:36.992Z,57.39
2018-07-08T07:58:06.080Z,56.82
2018-07-08T08:00:35.198Z,54.97
2018-07-08T08:03:04.304Z,55.03
2018-07-08T08:05:33.405Z,54.22
2018-07-08T08:08:02.489Z,53.85
2018-07-08T08:10:31.606Z,54.44
2018-07-08T08:13:00.709Z,54.09
2018-07-08T08:15:29.797Z,53.21
2018-07-08T08:17:59.177Z,52.71
2018-07-08T08:20:28.278Z,53.05
2018-07-08T08:22:57.362Z,51.31
2018-07-08T08:25:26.508Z,51.22
2018-07-08T08:27:55.608Z,51.75
2018-07-08T08:30:24.732Z,52.57
2018-07-08T08:32:53.813Z,51.81
2018-07-08T08:35:22.912Z,51.27
2018-07-08T08:37:54.068Z,50.25
2018-07-08T08:40:24.411Z,49.71
2018-07-08T08:42:53.892Z,49.09
2018-07-08T08:45:24.388Z,49.76
2018-07-08T08:47:53.472Z,49.96
2018-07-08T08:50:22.574Z,49.89
2018-07-08T08:52:51.672Z,50.38
2018-07-08T08:55:20.796Z,50.07
2018-07-08T08:57:49.871Z,49.27
2018-07-08T09:00:19.849Z,49.66
2018-07-08T09:02:48.912Z,50.79
2018-07-08T09:05:17.984Z,48.32
2018-07-08T09:07:47.092Z,48.03
2018-07-08T09:10:16.172Z,48.09
2018-07-08T09:12:45.271Z,48.29
2018-07-08T09:15:14.348Z,47.95
2018-07-08T09:17:43.462Z,47.81
2018-07-08T09:20:12.534Z,48.78
2018-07-08T09:22:41.635Z,48.49
2018-07-08T09:25:10.729Z,46.99
2018-07-08T09:27:39.829Z,48.12
2018-07-08T09:30:08.900Z,47.89
2018-07-08T09:32:38.120Z,48.35
2018-07-08T09:35:07.196Z,48.75
2018-07-08T09:37:36.305Z,47.09
2018-07-08T09:40:05.396Z,47.15
2018-07-08T09:42:34.502Z,47.93
2018-07-08T09:45:03.587Z,47.26
2018-07-08T09:47:32.688Z,47.15
2018-07-08T09:50:01.772Z,46.39
2018-07-08T09:52:32.040Z,46.69
2018-07-08T09:55:01.717Z,47.33
2018-07-08T09:57:31.232Z,46.15
2018-07-08T10:00:01.453Z,45.77
2018-07-08T10:02:31.479Z,45.14
2018-07-08T10:05:00.722Z,45.78
2018-07-08T10:07:29.776Z,45.70
2018-07-08T10:09:58.856Z,43.63
2018-07-08T10:12:27.957Z,44.16
2018-07-08T10:14:57.029Z,44.35
2018-07-08T10:17:26.132Z,43.90
2018-07-08T10:19:55.304Z,45.12
2018-07-08T10:22:24.313Z,45.35
2018-07-08T10:24:53.380Z,43.73
2018-07-08T10:27:32.598Z,44.02
2018-07-08T10:30:01.672Z,43.54
2018-07-08T10:32:30.777Z,42.93
2018-07-08T10:34:59.853Z,43.23
2018-07-08T10:37:28.973Z,43.05
2018-07-08T10:39:58.060Z,43.08
2018-07-08T10:42:27.160Z,43.13
2018-07-08T10:44:56.276Z,42.27
2018-07-08T10:47:25.353Z,42.79
2018-07-08T10:49:54.483Z,42.89
2018-07-08T10:52:23.625Z,43.08
2018-07-08T10:54:52.772Z,43.27
2018-07-08T10:57:21.840Z,43.27
2018-07-08T10:59:50.940Z,42.65
2018-07-08T11:02:20.032Z,43.06
2018-07-08T11:04:49.128Z,42.48
2018-07-08T11:07:18.204Z,42.07
2018-07-08T11:09:47.311Z,41.65
2018-07-08T11:12:16.384Z,42.76
2018-07-08T11:14:45.485Z,42.61
2018-07-08T11:17:19.616Z,41.89
2018-07-08T11:19:49.371Z,41.41
2018-07-08T11:22:18.483Z,41.61
2018-07-08T11:24:48.626Z,41.21
2018-07-08T11:27:17.784Z,41.76
2018-07-08T11:29:46.900Z,40.71
2018-07-08T11:32:16.044Z,41.13
2018-07-08T11:34:46.545Z,39.29
2018-07-08T11:37:16.773Z,39.70
2018-07-08T11:39:46.312Z,40.96
2018-07-08T11:42:15.388Z,39.39
2018-07-08T11:44:46.632Z,41.20
2018-07-08T11:47:15.724Z,41.45
2018-07-08T11:49:44.930Z,40.61
2018-07-08T11:52:14.017Z,41.12
2018-07-08T11:54:43.196Z,39.92
2018-07-08T11:57:12.276Z,39.39
2018-07-08T11:59:41.400Z,39.88
2018-07-08T12:02:10.505Z,39.74
2018-07-08T12:04:39.588Z,39.64
2018-07-08T12:07:08.690Z,39.60
2018-07-08T12:09:37.808Z,40.23
2018-07-08T12:12:06.907Z,40.83
2018-07-08T12:14:37.007Z,39.00
2018-07-08T12:17:06.308Z,39.67
2018-07-08T12:19:35.377Z,36.77
2018-07-08T12:22:04.504Z,37.76
2018-07-08T12:24:33.594Z,38.35
2018-07-08T12:27:02.697Z,37.57
2018-07-08T12:29:31.785Z,38.25
2018-07-08T12:32:00.927Z,38.34
2018-07-08T12:34:30.018Z,37.98
2018-07-08T12:36:59.125Z,37.78
2018-07-08T12:39:28.204Z,37.65
2018-07-08T12:41:57.313Z,39.37
2018-07-08T12:44:26.411Z,37.27
2018-07-08T12:46:55.496Z,37.88
2018-07-08T12:49:24.587Z,37.80
2018-07-08T12:51:53.679Z,36.98
2018-07-08T12:54:22.792Z,36.56
2018-07-08T12:56:51.936Z,36.81
2018-07-08T12:59:21.048Z,36.62
2018-07-08T13:01:50.156Z,37.53
2018-07-08T13:04:19.244Z,36.55
2018-07-08T13:06:48.734Z,36.71
2018-07-08T13:09:17.833Z,35.65
2018-07-08T13:11:46.963Z,36.07
2018-07-08T13:14:16.060Z,36.23
2018-07-08T13:16:45.167Z,37.18
2018-07-08T13:19:14.252Z,36.99
2018-07-08T13:21:43.354Z,36.99
2018-07-08T13:24:12.452Z,37.40
2018-07-08T13:26:41.566Z,37.95
2018-07-08T13:29:10.684Z,36.72
2018-07-08T13:31:39.785Z,36.75
2018-07-08T13:34:08.869Z,36.80
2018-07-08T13:36:37.976Z,37.57
2018-07-08T13:39:08.025Z,37.50
2018-07-08T13:41:37.149Z,36.59
2018-07-08T13:44:06.536Z,36.54
2018-07-08T13:46:35.652Z,35.89
2018-07-08T13:49:04.739Z,36.21
2018-07-08T13:51:33.850Z,35.52
2018-07-08T13:54:02.973Z,36.06
2018-07-08T13:56:32.085Z,36.28
2018-07-08T13:59:01.198Z,36.52
2018-07-08T14:01:30.288Z,36.36
2018-07-08T14:03:59.368Z,36.01
2018-07-08T14:06:28.460Z,36.41
2018-07-08T14:08:57.581Z,36.86
2018-07-08T14:11:26.664Z,34.61
2018-07-08T14:13:55.920Z,35.95
2018-07-08T14:16:25.028Z,35.80
2018-07-08T14:18:54.128Z,36.21
2018-07-08T14:21:23.204Z,35.95
2018-07-08T14:23:52.693Z,34.43
2018-07-08T14:26:21.781Z,34.93
2018-07-08T14:28:50.953Z,35.12
2018-07-08T14:31:20.118Z,35.34
2018-07-08T14:33:49.456Z,35.60
2018-07-08T14:36:18.716Z,33.94
2018-07-08T14:38:47.820Z,34.12
2018-07-08T14:41:16.900Z,34.53
2018-07-08T14:43:45.996Z,34.98
2018-07-08T14:46:15.943Z,34.52
2018-07-08T14:48:45.535Z,34.61
2018-07-08T14:51:14.600Z,35.04
2018-07-08T14:53:43.708Z,34.65
2018-07-08T14:56:12.782Z,35.45
2018-07-08T14:58:41.873Z,35.01
2018-07-08T15:01:10.948Z,35.47
2018-07-08T15:03:40.060Z,34.82
2018-07-08T15:06:09.582Z,35.14
2018-07-08T15:08:38.692Z,35.87
2018-07-08T15:11:07.789Z,34.96
2018-07-08T15:13:36.889Z,34.92
2018-07-08T15:16:06.067Z,35.21
2018-07-08T15:18:35.089Z,34.11
2018-07-08T15:21:04.211Z,34.75
2018-07-08T15:23:33.281Z,35.29
2018-07-08T15:26:02.376Z,34.34
2018-07-08T15:28:31.557Z,34.77
2018-07-08T15:31:00.573Z,34.99
2018-07-08T15:33:29.775Z,35.05
2018-07-08T15:35:58.848Z,34.61
2018-07-08T15:38:27.944Z,34.45
2018-07-08T15:40:57.068Z,34.69
2018-07-08T15:43:26.176Z,35.20
2018-07-08T15:45:55.266Z,34.87
2018-07-08T15:48:24.385Z,34.67
2018-07-08T15:50:53.458Z,35.14
2018-07-08T15:53:22.592Z,34.55
2018-07-08T15:55:51.679Z,34.12
2018-07-08T15:58:20.761Z,34.31
2018-07-08T16:00:49.873Z,34.51
2018-07-08T16:03:18.973Z,33.78
2018-07-08T16:05:48.092Z,34.35
2018-07-08T16:08:17.745Z,35.81
2018-07-08T16:10:46.840Z,35.02
2018-07-08T16:13:15.927Z,35.93
2018-07-08T16:15:45.042Z,35.61
2018-07-08T16:18:14.894Z,36.47
2018-07-08T16:20:43.940Z,35.29
2018-07-08T16:23:13.017Z,35.62
2018-07-08T16:25:42.130Z,36.26
2018-07-08T16:28:11.661Z,36.94
2018-07-08T16:30:40.791Z,37.15
2018-07-08T16:33:09.871Z,37.51
2018-07-08T16:35:47.488Z,36.59
2018-07-08T16:38:16.580Z,37.85
2018-07-08T16:40:45.693Z,37.35
2018-07-08T16:43:14.776Z,37.25
2018-07-08T16:45:43.905Z,37.47
2018-07-08T16:48:13.216Z,37.73
2018-07-08T16:50:42.322Z,37.28
2018-07-08T16:53:11.428Z,37.59
2018-07-08T16:55:40.531Z,36.55
2018-07-08T16:58:09.612Z,36.69
2018-07-08T17:00:38.716Z,38.07
2018-07-08T17:03:07.788Z,38.29
2018-07-08T17:05:36.884Z,38.02
2018-07-08T17:08:05.973Z,36.81
2018-07-08T17:10:35.076Z,38.17
2018-07-08T17:13:04.192Z,37.84
2018-07-08T17:15:33.305Z,37.77
2018-07-08T17:18:02.400Z,38.44
2018-07-08T17:20:31.496Z,38.22
2018-07-08T17:23:00.592Z,38.77
2018-07-08T17:25:29.704Z,38.79
2018-07-08T17:27:58.779Z,38.76
2018-07-08T17:30:27.887Z,39.55
2018-07-08T17:32:56.967Z,39.77
2018-07-08T17:35:26.099Z,39.46
2018-07-08T17:37:55.352Z,39.02
2018-07-08T17:40:24.596Z,38.05
2018-07-08T17:42:54.940Z,38.69
2018-07-08T17:45:24.089Z,38.17
2018-07-08T17:47:53.280Z,38.58
2018-07-08T17:50:22.368Z,38.90
2018-07-08T17:52:51.806Z,38.25
2018-07-08T17:55:20.938Z,38.53
2018-07-08T17:57:50.051Z,37.80
2018-07-08T18:00:19.177Z,38.13
2018-07-08T18:02:48.272Z,38.31
2018-07-08T18:05:17.364Z,39.14
2018-07-08T18:07:46.455Z,38.73
2018-07-08T18:10:16.152Z,38.95
2018-07-08T18:12:45.923Z,38.59
2018-07-08T18:15:15.620Z,38.54
2018-07-08T18:17:45.465Z,39.19
2018-07-08T18:20:14.592Z,39.90
2018-07-08T18:22:43.687Z,38.88
2018-07-08T18:25:12.995Z,39.47
2018-07-08T18:27:42.080Z,38.84
2018-07-08T18:30:11.180Z,39.13
2018-07-08T18:32:40.480Z,39.35
2018-07-08T18:35:09.638Z,39.07
2018-07-08T18:37:38.801Z,38.81
2018-07-08T18:40:07.853Z,38.79
2018-07-08T18:42:37.156Z,38.79
2018-07-08T18:45:07.329Z,38.56
2018-07-08T18:47:36.626Z,39.12
2018-07-08T18:50:06.208Z,39.02
2018-07-08T18:52:35.378Z,39.57
2018-07-08T18:55:04.496Z,38.77
2018-07-08T18:57:33.601Z,39.03
2018-07-08T19:00:03.228Z,39.69
2018-07-08T19:02:32.372Z,38.97
2018-07-08T19:05:01.451Z,39.43
2018-07-08T19:07:30.552Z,40.11
2018-07-08T19:09:59.653Z,40.07
2018-07-08T19:12:28.791Z,40.58
2018-07-08T19:14:59.149Z,40.70
2018-07-08T19:17:28.938Z,41.00
2018-07-08T19:19:58.079Z,40.71
2018-07-08T19:22:27.160Z,41.38
2018-07-08T19:24:57.072Z,41.38
2018-07-08T19:27:26.515Z,41.79
2018-07-08T19:29:55.641Z,42.19
2018-07-08T19:32:25.251Z,42.11
2018-07-08T19:34:54.344Z,42.35
2018-07-08T19:37:23.474Z,42.49
2018-07-08T19:39:52.629Z,42.86
2018-07-08T19:42:21.772Z,42.44
2018-07-08T19:44:50.883Z,42.48
2018-07-08T19:47:20.053Z,43.40
2018-07-08T19:49:49.365Z,43.28
2018-07-08T19:52:18.473Z,42.51
2018-07-08T19:54:47.625Z,43.11
2018-07-08T19:57:18.302Z,43.83
2018-07-08T19:59:48.457Z,43.85
2018-07-08T20:02:18.100Z,43.95
2018-07-08T20:04:51.797Z,43.71
2018-07-08T20:07:20.986Z,43.76
2018-07-08T20:09:50.119Z,43.93
2018-07-08T20:12:19.204Z,44.31
2018-07-08T20:14:48.300Z,45.17
2018-07-08T20:17:17.389Z,44.80
2018-07-08T20:19:46.493Z,44.97
2018-07-08T20:22:15.580Z,44.21
2018-07-08T20:24:44.696Z,44.75
2018-07-08T20:27:14.539Z,44.98
2018-07-08T20:29:44.109Z,44.31
2018-07-08T20:32:13.196Z,44.75
2018-07-08T20:34:42.892Z,44.67
2018-07-08T20:37:11.981Z,45.52
2018-07-08T20:39:41.612Z,45.32
2018-07-08T20:42:11.553Z,44.92
2018-07-08T20:44:41.003Z,45.86
2018-07-08T20:47:10.278Z,45.75
2018-07-08T20:49:39.384Z,46.20
2018-07-08T20:52:08.505Z,47.15
2018-07-08T20:54:37.615Z,46.35
2018-07-08T20:57:06.696Z,46.65
2018-07-08T20:59:35.805Z,46.86
2018-07-08T21:02:04.885Z,46.85
2018-07-08T21:04:33.989Z,47.79
2018-07-08T21:07:03.069Z,47.28
2018-07-08T21:09:32.616Z,48.32
2018-07-08T21:12:01.705Z,48.37
2018-07-08T21:14:30.825Z,49.13
2018-07-08T21:16:59.897Z,49.39
2018-07-08T21:19:28.995Z,49.13
2018-07-08T21:21:58.083Z,49.80
2018-07-08T21:24:27.272Z,49.84
2018-07-08T21:26:57.037Z,49.75
2018-07-08T21:29:26.140Z,49.93
2018-07-08T21:31:55.241Z,50.24
2018-07-08T21:34:24.356Z,50.52
2018-07-08T21:36:53.475Z,50.57
2018-07-08T21:39:22.519Z,51.13
2018-07-08T21:41:51.637Z,51.62
2018-07-08T21:44:20.707Z,51.67
2018-07-08T21:46:49.820Z,52.01
2018-07-08T21:49:18.885Z,52.28
2018-07-08T21:51:47.989Z,53.04
2018-07-08T21:54:17.095Z,53.05
2018-07-08T21:56:46.200Z,52.47
2018-07-08T21:59:15.252Z,52.64
2018-07-08T22:02:02.120Z,53.05
2018-07-08T22:04:31.238Z,52.54
2018-07-08T22:07:05.738Z,53.32
2018-07-08T22:09:35.172Z,52.85
2018-07-08T22:12:04.360Z,52.80
2018-07-08T22:14:33.432Z,53.93
2018-07-08T22:17:02.532Z,54.28
2018-07-08T22:19:31.608Z,54.48
2018-07-08T22:22:00.956Z,54.74
2018-07-08T22:24:30.033Z,54.83
2018-07-08T22:26:59.132Z,55.10
2018-07-08T22:29:28.208Z,54.75
2018-07-08T22:31:57.303Z,55.13
2018-07-08T22:34:26.377Z,54.72
2018-07-08T22:36:55.483Z,54.84
2018-07-08T22:39:24.626Z,54.90
2018-07-08T22:41:53.663Z,55.40
2018-07-08T22:44:22.744Z,55.73
2018-07-08T22:46:51.844Z,56.29
2018-07-08T22:49:20.921Z,56.43
2018-07-08T22:51:50.025Z,55.91
2018-07-08T22:54:19.120Z,55.83
2018-07-08T22:56:48.220Z,56.75
2018-07-08T22:59:17.292Z,56.15
2018-07-08T23:01:57.889Z,56.26
2018-07-08T23:04:26.983Z,56.81
2018-07-08T23:06:56.091Z,56.50
2018-07-08T23:09:25.173Z,56.35
2018-07-08T23:11:54.280Z,56.49
2018-07-08T23:14:23.368Z,56.53
2018-07-08T23:16:52.469Z,57.07
2018-07-08T23:19:21.544Z,56.92
2018-07-08T23:21:50.643Z,57.24
2018-07-08T23:24:19.708Z,57.28
2018-07-08T23:26:48.804Z,57.26
2018-07-08T23:29:17.873Z,56.75
2018-07-08T23:31:46.978Z,57.41
2018-07-08T23:34:16.033Z,57.25
2018-07-08T23:36:45.136Z,57.29
2018-07-08T23:39:14.196Z,57.92
2018-07-08T23:41:43.263Z,57.83
2018-07-08T23:44:12.357Z,57.14
2018-07-08T23:46:41.428Z,57.23
2018-07-08T23:49:10.533Z,57.45
2018-07-08T23:51:39.588Z,58.28
2018-07-08T23:54:08.704Z,58.31
2018-07-08T23:56:37.764Z,58.39
2018-07-08T23:59:06.860Z,57.88
